sensor_id;sensor_type;location;lat;lon;timestamp;temperature;humidity
65036;DHT22;51603;49.300;8.880;2023-02-05T00:02:11;2.70;99.90
65036;DHT22;51603;49.300;8.880;2023-02-05T00:04:37;2.60;99.90
65036;DHT22;51603;49.300;8.880;2023-02-05T00:07:03;2.60;99.90
65036;DHT22;51603;49.300;8.880;2023-02-05T00:09:29;2.70;99.90
65036;DHT22;51603;49.300;8.880;2023-02-05T00:11:55;2.70;99.90
65036;DHT22;51603;49.300;8.880;2023-02-05T00:14:21;2.70;99.90
65036;DHT22;51603;49.300;8.880;2023-02-05T00:16:47;2.70;99.90
65036;DHT22;51603;49.300;8.880;2023-02-05T00:19:13;2.60;99.90
65036;DHT22;51603;49.300;8.880;2023-02-05T00:21:39;2.70;99.90
65036;DHT22;51603;49.300;8.880;2023-02-05T00:24:04;2.70;99.90
65036;DHT22;51603;49.300;8.880;2023-02-05T00:26:30;2.70;99.90
65036;DHT22;51603;49.300;8.880;2023-02-05T00:28:56;2.70;99.90
65036;DHT22;51603;49.300;8.880;2023-02-05T00:31:22;2.70;99.90
65036;DHT22;51603;49.300;8.880;2023-02-05T00:33:49;2.70;99.90
65036;DHT22;51603;49.300;8.880;2023-02-05T00:36:17;2.70;99.90
65036;DHT22;51603;49.300;8.880;2023-02-05T00:38:44;2.60;99.90
65036;DHT22;51603;49.300;8.880;2023-02-05T00:41:10;2.70;99.90
65036;DHT22;51603;49.300;8.880;2023-02-05T00:43:36;2.70;99.90
65036;DHT22;51603;49.300;8.880;2023-02-05T00:46:02;2.70;99.90
65036;DHT22;51603;49.300;8.880;2023-02-05T00:48:27;2.70;99.90
65036;DHT22;51603;49.300;8.880;2023-02-05T00:50:53;2.70;99.90
65036;DHT22;51603;49.300;8.880;2023-02-05T00:53:20;2.70;99.90
65036;DHT22;51603;49.300;8.880;2023-02-05T00:55:46;2.70;99.90
65036;DHT22;51603;49.300;8.880;2023-02-05T00:58:12;2.70;99.90
65036;DHT22;51603;49.300;8.880;2023-02-05T01:00:38;2.70;99.90
65036;DHT22;51603;49.300;8.880;2023-02-05T01:03:03;2.70;99.90
65036;DHT22;51603;49.300;8.880;2023-02-05T01:05:29;2.70;99.90
65036;DHT22;51603;49.300;8.880;2023-02-05T01:07:55;2.70;99.90
65036;DHT22;51603;49.300;8.880;2023-02-05T01:10:21;2.70;99.90
65036;DHT22;51603;49.300;8.880;2023-02-05T01:12:48;2.70;99.90
65036;DHT22;51603;49.300;8.880;2023-02-05T01:15:14;2.70;99.90
65036;DHT22;51603;49.300;8.880;2023-02-05T01:17:39;2.70;99.90
65036;DHT22;51603;49.300;8.880;2023-02-05T01:20:05;2.70;99.90
65036;DHT22;51603;49.300;8.880;2023-02-05T01:22:31;2.70;99.90
65036;DHT22;51603;49.300;8.880;2023-02-05T01:24:57;2.70;99.90
65036;DHT22;51603;49.300;8.880;2023-02-05T01:27:23;2.70;99.90
65036;DHT22;51603;49.300;8.880;2023-02-05T01:29:49;2.70;99.90
65036;DHT22;51603;49.300;8.880;2023-02-05T01:32:15;2.70;99.90
65036;DHT22;51603;49.300;8.880;2023-02-05T01:34:41;2.70;99.90
65036;DHT22;51603;49.300;8.880;2023-02-05T01:37:07;2.70;99.90
65036;DHT22;51603;49.300;8.880;2023-02-05T01:39:32;2.60;99.90
65036;DHT22;51603;49.300;8.880;2023-02-05T01:41:58;2.60;99.90
65036;DHT22;51603;49.300;8.880;2023-02-05T01:44:24;2.60;99.90
65036;DHT22;51603;49.300;8.880;2023-02-05T01:46:52;2.60;99.90
65036;DHT22;51603;49.300;8.880;2023-02-05T01:49:19;2.50;99.90
65036;DHT22;51603;49.300;8.880;2023-02-05T01:51:46;2.50;99.90
65036;DHT22;51603;49.300;8.880;2023-02-05T01:54:13;2.50;99.90
65036;DHT22;51603;49.300;8.880;2023-02-05T01:56:42;2.40;99.90
65036;DHT22;51603;49.300;8.880;2023-02-05T01:59:13;2.40;99.90
65036;DHT22;51603;49.300;8.880;2023-02-05T02:01:41;2.40;99.90
65036;DHT22;51603;49.300;8.880;2023-02-05T02:04:08;2.40;99.90
65036;DHT22;51603;49.300;8.880;2023-02-05T02:06:35;2.30;99.90
65036;DHT22;51603;49.300;8.880;2023-02-05T02:09:02;2.30;99.90
65036;DHT22;51603;49.300;8.880;2023-02-05T02:11:30;2.30;99.90
65036;DHT22;51603;49.300;8.880;2023-02-05T02:13:58;2.30;99.90
65036;DHT22;51603;49.300;8.880;2023-02-05T02:16:26;2.20;99.90
65036;DHT22;51603;49.300;8.880;2023-02-05T02:18:53;2.10;99.90
65036;DHT22;51603;49.300;8.880;2023-02-05T02:27:17;2.00;99.90
65036;DHT22;51603;49.300;8.880;2023-02-05T02:29:56;2.00;99.90
65036;DHT22;51603;49.300;8.880;2023-02-05T02:32:24;2.00;99.90
65036;DHT22;51603;49.300;8.880;2023-02-05T02:35:03;2.00;99.90
65036;DHT22;51603;49.300;8.880;2023-02-05T02:37:36;1.90;99.90
65036;DHT22;51603;49.300;8.880;2023-02-05T02:43:13;1.90;99.90
65036;DHT22;51603;49.300;8.880;2023-02-05T02:45:49;1.90;99.90
65036;DHT22;51603;49.300;8.880;2023-02-05T02:48:17;1.90;99.90
65036;DHT22;51603;49.300;8.880;2023-02-05T02:50:46;1.90;99.90
65036;DHT22;51603;49.300;8.880;2023-02-05T02:53:17;1.80;99.90
65036;DHT22;51603;49.300;8.880;2023-02-05T02:55:45;1.80;99.90
65036;DHT22;51603;49.300;8.880;2023-02-05T02:58:46;1.80;99.90
65036;DHT22;51603;49.300;8.880;2023-02-05T03:01:14;1.80;99.90
65036;DHT22;51603;49.300;8.880;2023-02-05T03:03:44;1.70;99.90
65036;DHT22;51603;49.300;8.880;2023-02-05T03:06:13;1.60;99.90
65036;DHT22;51603;49.300;8.880;2023-02-05T03:08:46;1.60;99.90
65036;DHT22;51603;49.300;8.880;2023-02-05T03:11:14;1.50;99.90
65036;DHT22;51603;49.300;8.880;2023-02-05T03:13:41;1.50;99.90
65036;DHT22;51603;49.300;8.880;2023-02-05T03:16:08;1.50;99.90
65036;DHT22;51603;49.300;8.880;2023-02-05T03:18:35;1.50;99.90
65036;DHT22;51603;49.300;8.880;2023-02-05T03:21:20;1.40;99.90
65036;DHT22;51603;49.300;8.880;2023-02-05T03:23:48;1.40;99.90
65036;DHT22;51603;49.300;8.880;2023-02-05T03:26:27;1.40;99.90
65036;DHT22;51603;49.300;8.880;2023-02-05T03:28:55;1.40;99.90
65036;DHT22;51603;49.300;8.880;2023-02-05T03:37:45;1.40;99.90
65036;DHT22;51603;49.300;8.880;2023-02-05T03:42:49;1.40;99.90
65036;DHT22;51603;49.300;8.880;2023-02-05T03:45:30;1.40;99.90
65036;DHT22;51603;49.300;8.880;2023-02-05T03:48:20;1.40;99.90
65036;DHT22;51603;49.300;8.880;2023-02-05T03:51:09;1.40;99.90
65036;DHT22;51603;49.300;8.880;2023-02-05T03:59:13;1.40;99.90
65036;DHT22;51603;49.300;8.880;2023-02-05T04:01:42;1.40;99.90
65036;DHT22;51603;49.300;8.880;2023-02-05T04:04:08;1.40;99.90
65036;DHT22;51603;49.300;8.880;2023-02-05T04:06:34;1.40;99.90
65036;DHT22;51603;49.300;8.880;2023-02-05T04:08:59;1.40;99.90
65036;DHT22;51603;49.300;8.880;2023-02-05T04:11:25;1.50;99.90
65036;DHT22;51603;49.300;8.880;2023-02-05T04:13:51;1.50;99.90
65036;DHT22;51603;49.300;8.880;2023-02-05T04:16:16;1.60;99.90
65036;DHT22;51603;49.300;8.880;2023-02-05T04:18:42;1.70;99.90
65036;DHT22;51603;49.300;8.880;2023-02-05T04:21:07;1.70;99.90
65036;DHT22;51603;49.300;8.880;2023-02-05T04:23:33;1.70;99.90
65036;DHT22;51603;49.300;8.880;2023-02-05T04:25:58;1.70;99.90
65036;DHT22;51603;49.300;8.880;2023-02-05T04:28:24;1.60;99.90
65036;DHT22;51603;49.300;8.880;2023-02-05T04:30:50;1.50;99.90
65036;DHT22;51603;49.300;8.880;2023-02-05T04:33:15;1.60;99.90
65036;DHT22;51603;49.300;8.880;2023-02-05T04:35:41;1.70;99.90
65036;DHT22;51603;49.300;8.880;2023-02-05T04:38:06;1.60;99.90
65036;DHT22;51603;49.300;8.880;2023-02-05T04:40:32;1.60;99.90
65036;DHT22;51603;49.300;8.880;2023-02-05T04:42:57;1.60;99.90
65036;DHT22;51603;49.300;8.880;2023-02-05T04:45:23;1.70;99.90
65036;DHT22;51603;49.300;8.880;2023-02-05T04:47:51;1.70;99.90
65036;DHT22;51603;49.300;8.880;2023-02-05T04:50:16;1.70;99.90
65036;DHT22;51603;49.300;8.880;2023-02-05T04:52:42;1.70;99.90
65036;DHT22;51603;49.300;8.880;2023-02-05T04:55:08;1.60;99.90
65036;DHT22;51603;49.300;8.880;2023-02-05T04:57:33;1.60;99.90
65036;DHT22;51603;49.300;8.880;2023-02-05T04:59:59;1.70;99.90
65036;DHT22;51603;49.300;8.880;2023-02-05T05:02:25;1.70;99.90
65036;DHT22;51603;49.300;8.880;2023-02-05T05:04:50;1.80;99.90
65036;DHT22;51603;49.300;8.880;2023-02-05T05:07:16;1.80;99.90
65036;DHT22;51603;49.300;8.880;2023-02-05T05:09:41;1.80;99.90
65036;DHT22;51603;49.300;8.880;2023-02-05T05:12:07;1.90;99.90
65036;DHT22;51603;49.300;8.880;2023-02-05T05:14:33;1.80;99.90
65036;DHT22;51603;49.300;8.880;2023-02-05T05:16:59;1.80;99.90
65036;DHT22;51603;49.300;8.880;2023-02-05T05:19:24;1.80;99.90
65036;DHT22;51603;49.300;8.880;2023-02-05T05:21:50;1.90;99.90
65036;DHT22;51603;49.300;8.880;2023-02-05T05:24:15;1.90;99.90
65036;DHT22;51603;49.300;8.880;2023-02-05T05:26:41;1.80;99.90
65036;DHT22;51603;49.300;8.880;2023-02-05T05:29:13;1.80;99.90
65036;DHT22;51603;49.300;8.880;2023-02-05T05:31:39;1.70;99.90
65036;DHT22;51603;49.300;8.880;2023-02-05T05:34:05;1.80;99.90
65036;DHT22;51603;49.300;8.880;2023-02-05T05:36:31;1.70;99.90
65036;DHT22;51603;49.300;8.880;2023-02-05T05:38:56;1.80;99.90
65036;DHT22;51603;49.300;8.880;2023-02-05T05:41:42;1.80;99.90
65036;DHT22;51603;49.300;8.880;2023-02-05T05:44:26;1.80;99.90
65036;DHT22;51603;49.300;8.880;2023-02-05T05:46:51;1.80;99.90
65036;DHT22;51603;49.300;8.880;2023-02-05T05:49:17;1.80;99.90
65036;DHT22;51603;49.300;8.880;2023-02-05T05:51:42;1.70;99.90
65036;DHT22;51603;49.300;8.880;2023-02-05T05:54:08;1.80;99.90
65036;DHT22;51603;49.300;8.880;2023-02-05T05:56:33;1.80;99.90
65036;DHT22;51603;49.300;8.880;2023-02-05T05:59:00;1.80;99.90
65036;DHT22;51603;49.300;8.880;2023-02-05T06:01:26;1.80;99.90
65036;DHT22;51603;49.300;8.880;2023-02-05T06:03:52;1.80;99.90
65036;DHT22;51603;49.300;8.880;2023-02-05T06:06:17;1.90;99.90
65036;DHT22;51603;49.300;8.880;2023-02-05T06:08:43;1.90;99.90
65036;DHT22;51603;49.300;8.880;2023-02-05T06:11:09;1.80;99.90
65036;DHT22;51603;49.300;8.880;2023-02-05T06:13:35;1.70;99.90
65036;DHT22;51603;49.300;8.880;2023-02-05T06:16:01;1.80;99.90
65036;DHT22;51603;49.300;8.880;2023-02-05T06:18:27;1.80;99.90
65036;DHT22;51603;49.300;8.880;2023-02-05T06:20:52;1.80;99.90
65036;DHT22;51603;49.300;8.880;2023-02-05T06:23:18;1.80;99.90
65036;DHT22;51603;49.300;8.880;2023-02-05T06:25:43;1.80;99.90
65036;DHT22;51603;49.300;8.880;2023-02-05T06:28:09;1.90;99.90
65036;DHT22;51603;49.300;8.880;2023-02-05T06:30:35;1.80;99.90
65036;DHT22;51603;49.300;8.880;2023-02-05T06:33:00;1.80;99.90
65036;DHT22;51603;49.300;8.880;2023-02-05T06:35:26;1.70;99.90
65036;DHT22;51603;49.300;8.880;2023-02-05T06:37:51;1.70;99.90
65036;DHT22;51603;49.300;8.880;2023-02-05T06:40:17;1.80;99.90
65036;DHT22;51603;49.300;8.880;2023-02-05T06:42:45;1.80;99.90
65036;DHT22;51603;49.300;8.880;2023-02-05T06:45:10;1.80;99.90
65036;DHT22;51603;49.300;8.880;2023-02-05T06:47:37;1.80;99.90
65036;DHT22;51603;49.300;8.880;2023-02-05T06:50:04;1.70;99.90
65036;DHT22;51603;49.300;8.880;2023-02-05T06:52:30;1.80;99.90
65036;DHT22;51603;49.300;8.880;2023-02-05T06:54:55;1.80;99.90
65036;DHT22;51603;49.300;8.880;2023-02-05T06:57:21;1.70;99.90
65036;DHT22;51603;49.300;8.880;2023-02-05T06:59:46;1.80;99.90
65036;DHT22;51603;49.300;8.880;2023-02-05T07:02:12;1.80;99.90
65036;DHT22;51603;49.300;8.880;2023-02-05T07:04:38;1.90;99.90
65036;DHT22;51603;49.300;8.880;2023-02-05T07:07:04;1.90;99.90
65036;DHT22;51603;49.300;8.880;2023-02-05T07:09:30;1.90;99.90
65036;DHT22;51603;49.300;8.880;2023-02-05T07:11:56;1.90;99.90
65036;DHT22;51603;49.300;8.880;2023-02-05T07:14:21;1.90;99.90
65036;DHT22;51603;49.300;8.880;2023-02-05T07:16:47;1.90;99.90
65036;DHT22;51603;49.300;8.880;2023-02-05T07:19:12;1.90;99.90
65036;DHT22;51603;49.300;8.880;2023-02-05T07:21:38;1.90;99.90
65036;DHT22;51603;49.300;8.880;2023-02-05T07:24:04;1.90;99.90
65036;DHT22;51603;49.300;8.880;2023-02-05T07:26:29;1.90;99.90
65036;DHT22;51603;49.300;8.880;2023-02-05T07:28:55;2.00;99.90
65036;DHT22;51603;49.300;8.880;2023-02-05T07:31:21;2.00;99.90
65036;DHT22;51603;49.300;8.880;2023-02-05T07:33:47;2.00;99.90
65036;DHT22;51603;49.300;8.880;2023-02-05T07:36:15;2.00;99.90
65036;DHT22;51603;49.300;8.880;2023-02-05T07:38:42;1.90;99.90
65036;DHT22;51603;49.300;8.880;2023-02-05T07:41:10;1.90;99.90
65036;DHT22;51603;49.300;8.880;2023-02-05T07:43:36;2.00;99.90
65036;DHT22;51603;49.300;8.880;2023-02-05T07:46:04;2.00;99.90
65036;DHT22;51603;49.300;8.880;2023-02-05T07:48:30;2.00;99.90
65036;DHT22;51603;49.300;8.880;2023-02-05T07:50:56;2.00;99.90
65036;DHT22;51603;49.300;8.880;2023-02-05T07:53:21;2.00;99.90
65036;DHT22;51603;49.300;8.880;2023-02-05T07:55:47;2.10;99.90
65036;DHT22;51603;49.300;8.880;2023-02-05T07:58:13;2.10;99.90
65036;DHT22;51603;49.300;8.880;2023-02-05T08:00:39;2.10;99.90
65036;DHT22;51603;49.300;8.880;2023-02-05T08:03:04;2.10;99.90
65036;DHT22;51603;49.300;8.880;2023-02-05T08:05:30;2.10;99.90
65036;DHT22;51603;49.300;8.880;2023-02-05T08:07:55;2.10;99.90
65036;DHT22;51603;49.300;8.880;2023-02-05T08:10:21;2.10;99.90
65036;DHT22;51603;49.300;8.880;2023-02-05T08:12:46;2.10;99.90
65036;DHT22;51603;49.300;8.880;2023-02-05T08:15:12;2.20;99.90
65036;DHT22;51603;49.300;8.880;2023-02-05T08:17:38;2.20;99.90
65036;DHT22;51603;49.300;8.880;2023-02-05T08:20:04;2.20;99.90
65036;DHT22;51603;49.300;8.880;2023-02-05T08:22:34;2.20;99.90
65036;DHT22;51603;49.300;8.880;2023-02-05T08:25:00;2.20;99.90
65036;DHT22;51603;49.300;8.880;2023-02-05T08:27:25;2.20;99.90
65036;DHT22;51603;49.300;8.880;2023-02-05T08:29:51;2.30;99.90
65036;DHT22;51603;49.300;8.880;2023-02-05T08:32:17;2.20;99.90
65036;DHT22;51603;49.300;8.880;2023-02-05T08:34:42;2.20;99.90
65036;DHT22;51603;49.300;8.880;2023-02-05T08:37:08;2.20;99.90
65036;DHT22;51603;49.300;8.880;2023-02-05T08:39:34;2.00;99.90
65036;DHT22;51603;49.300;8.880;2023-02-05T08:41:59;2.00;99.90
65036;DHT22;51603;49.300;8.880;2023-02-05T08:44:26;2.00;99.90
65036;DHT22;51603;49.300;8.880;2023-02-05T08:46:52;2.10;99.90
65036;DHT22;51603;49.300;8.880;2023-02-05T08:49:18;2.10;99.90
65036;DHT22;51603;49.300;8.880;2023-02-05T08:51:43;2.10;99.90
65036;DHT22;51603;49.300;8.880;2023-02-05T08:54:09;2.20;99.90
65036;DHT22;51603;49.300;8.880;2023-02-05T08:56:38;2.20;99.90
65036;DHT22;51603;49.300;8.880;2023-02-05T08:59:05;2.30;99.90
65036;DHT22;51603;49.300;8.880;2023-02-05T09:01:31;2.20;99.90
65036;DHT22;51603;49.300;8.880;2023-02-05T09:03:56;2.20;99.90
65036;DHT22;51603;49.300;8.880;2023-02-05T09:06:22;2.20;99.90
65036;DHT22;51603;49.300;8.880;2023-02-05T09:08:48;2.20;99.90
65036;DHT22;51603;49.300;8.880;2023-02-05T09:11:17;2.10;99.90
65036;DHT22;51603;49.300;8.880;2023-02-05T09:13:44;2.10;99.90
65036;DHT22;51603;49.300;8.880;2023-02-05T09:16:10;2.20;99.90
65036;DHT22;51603;49.300;8.880;2023-02-05T09:18:35;2.30;99.90
65036;DHT22;51603;49.300;8.880;2023-02-05T09:21:05;2.30;99.90
65036;DHT22;51603;49.300;8.880;2023-02-05T09:23:31;2.30;99.90
65036;DHT22;51603;49.300;8.880;2023-02-05T09:25:58;2.30;99.90
65036;DHT22;51603;49.300;8.880;2023-02-05T09:28:24;2.30;99.90
65036;DHT22;51603;49.300;8.880;2023-02-05T09:30:50;2.40;99.90
65036;DHT22;51603;49.300;8.880;2023-02-05T09:33:16;2.40;99.90
65036;DHT22;51603;49.300;8.880;2023-02-05T09:35:41;2.30;99.90
65036;DHT22;51603;49.300;8.880;2023-02-05T09:38:08;2.30;99.90
65036;DHT22;51603;49.300;8.880;2023-02-05T09:51:42;2.40;99.90
65036;DHT22;51603;49.300;8.880;2023-02-05T09:56:42;2.50;99.90
65036;DHT22;51603;49.300;8.880;2023-02-05T09:59:13;2.50;99.90
65036;DHT22;51603;49.300;8.880;2023-02-05T10:01:47;2.50;99.90
65036;DHT22;51603;49.300;8.880;2023-02-05T10:04:14;2.40;99.90
65036;DHT22;51603;49.300;8.880;2023-02-05T10:09:51;2.50;99.90
65036;DHT22;51603;49.300;8.880;2023-02-05T10:12:31;2.50;99.90
65036;DHT22;51603;49.300;8.880;2023-02-05T10:18:11;2.60;99.90
65036;DHT22;51603;49.300;8.880;2023-02-05T10:26:17;2.80;99.90
65036;DHT22;51603;49.300;8.880;2023-02-05T10:37:07;3.00;99.90
65036;DHT22;51603;49.300;8.880;2023-02-05T10:39:36;3.00;99.90
65036;DHT22;51603;49.300;8.880;2023-02-05T10:45:07;2.90;99.90
65036;DHT22;51603;49.300;8.880;2023-02-05T10:50:40;2.90;99.90
65036;DHT22;51603;49.300;8.880;2023-02-05T10:53:05;2.90;99.90
65036;DHT22;51603;49.300;8.880;2023-02-05T10:55:31;2.90;99.90
65036;DHT22;51603;49.300;8.880;2023-02-05T10:57:57;2.90;99.90
65036;DHT22;51603;49.300;8.880;2023-02-05T11:00:23;2.90;99.90
65036;DHT22;51603;49.300;8.880;2023-02-05T11:02:52;3.00;99.90
65036;DHT22;51603;49.300;8.880;2023-02-05T11:05:35;3.00;99.90
65036;DHT22;51603;49.300;8.880;2023-02-05T11:08:02;3.00;99.90
65036;DHT22;51603;49.300;8.880;2023-02-05T11:10:30;3.00;99.90
65036;DHT22;51603;49.300;8.880;2023-02-05T11:12:59;3.00;99.90
65036;DHT22;51603;49.300;8.880;2023-02-05T11:15:29;2.90;99.90
65036;DHT22;51603;49.300;8.880;2023-02-05T11:17:58;3.00;99.90
65036;DHT22;51603;49.300;8.880;2023-02-05T11:20:28;3.00;99.90
65036;DHT22;51603;49.300;8.880;2023-02-05T11:23:20;3.10;99.90
65036;DHT22;51603;49.300;8.880;2023-02-05T11:25:55;3.30;99.90
65036;DHT22;51603;49.300;8.880;2023-02-05T11:28:29;3.50;99.90
65036;DHT22;51603;49.300;8.880;2023-02-05T11:30:55;3.60;99.90
65036;DHT22;51603;49.300;8.880;2023-02-05T11:38:33;3.80;99.90
65036;DHT22;51603;49.300;8.880;2023-02-05T11:41:03;3.90;99.90
65036;DHT22;51603;49.300;8.880;2023-02-05T11:43:35;3.90;99.90
65036;DHT22;51603;49.300;8.880;2023-02-05T11:46:06;4.00;99.90
65036;DHT22;51603;49.300;8.880;2023-02-05T11:51:05;4.10;99.90
65036;DHT22;51603;49.300;8.880;2023-02-05T11:53:33;4.10;99.90
65036;DHT22;51603;49.300;8.880;2023-02-05T11:56:04;4.20;99.90
65036;DHT22;51603;49.300;8.880;2023-02-05T11:58:32;4.20;99.90
65036;DHT22;51603;49.300;8.880;2023-02-05T12:01:03;4.20;99.90
65036;DHT22;51603;49.300;8.880;2023-02-05T12:03:31;4.20;99.90
65036;DHT22;51603;49.300;8.880;2023-02-05T12:06:14;4.20;99.90
65036;DHT22;51603;49.300;8.880;2023-02-05T12:08:51;4.30;99.90
65036;DHT22;51603;49.300;8.880;2023-02-05T12:15:11;4.30;99.90
65036;DHT22;51603;49.300;8.880;2023-02-05T12:17:47;4.30;99.90
65036;DHT22;51603;49.300;8.880;2023-02-05T12:20:31;4.30;99.90
65036;DHT22;51603;49.300;8.880;2023-02-05T12:28:44;4.20;99.90
65036;DHT22;51603;49.300;8.880;2023-02-05T12:39:38;4.30;99.90
65036;DHT22;51603;49.300;8.880;2023-02-05T12:50:52;4.30;99.90
65036;DHT22;51603;49.300;8.880;2023-02-05T12:53:26;4.30;99.90
65036;DHT22;51603;49.300;8.880;2023-02-05T12:58:44;4.30;99.90
65036;DHT22;51603;49.300;8.880;2023-02-05T13:01:15;4.30;99.90
65036;DHT22;51603;49.300;8.880;2023-02-05T13:03:46;4.30;99.90
65036;DHT22;51603;49.300;8.880;2023-02-05T13:06:27;4.30;99.90
65036;DHT22;51603;49.300;8.880;2023-02-05T13:09:01;4.30;99.90
65036;DHT22;51603;49.300;8.880;2023-02-05T13:11:39;4.30;99.90
65036;DHT22;51603;49.300;8.880;2023-02-05T13:17:14;4.40;99.90
65036;DHT22;51603;49.300;8.880;2023-02-05T13:19:44;4.40;99.90
65036;DHT22;51603;49.300;8.880;2023-02-05T13:22:38;4.40;99.90
65036;DHT22;51603;49.300;8.880;2023-02-05T13:25:24;4.40;99.90
65036;DHT22;51603;49.300;8.880;2023-02-05T13:27:56;4.40;99.90
65036;DHT22;51603;49.300;8.880;2023-02-05T13:30:46;4.40;99.90
65036;DHT22;51603;49.300;8.880;2023-02-05T13:33:15;4.40;99.90
65036;DHT22;51603;49.300;8.880;2023-02-05T13:35:50;4.50;99.90
65036;DHT22;51603;49.300;8.880;2023-02-05T13:38:33;4.40;99.90
65036;DHT22;51603;49.300;8.880;2023-02-05T13:47:15;4.50;99.90
65036;DHT22;51603;49.300;8.880;2023-02-05T13:55:06;4.50;99.90
65036;DHT22;51603;49.300;8.880;2023-02-05T13:58:29;4.50;99.90
65036;DHT22;51603;49.300;8.880;2023-02-05T14:00:38;4.50;99.90
65036;DHT22;51603;49.300;8.880;2023-02-05T14:03:04;4.60;99.90
65036;DHT22;51603;49.300;8.880;2023-02-05T14:05:38;4.60;99.90
65036;DHT22;51603;49.300;8.880;2023-02-05T14:08:19;4.60;99.90
65036;DHT22;51603;49.300;8.880;2023-02-05T14:10:45;4.70;99.90
65036;DHT22;51603;49.300;8.880;2023-02-05T14:13:31;4.70;99.90
65036;DHT22;51603;49.300;8.880;2023-02-05T14:16:36;4.70;99.90
65036;DHT22;51603;49.300;8.880;2023-02-05T14:23:58;4.80;99.90
65036;DHT22;51603;49.300;8.880;2023-02-05T14:29:37;4.70;99.90
65036;DHT22;51603;49.300;8.880;2023-02-05T14:32:02;4.70;99.90
65036;DHT22;51603;49.300;8.880;2023-02-05T14:36:56;4.70;99.90
65036;DHT22;51603;49.300;8.880;2023-02-05T14:39:27;4.70;99.90
65036;DHT22;51603;49.300;8.880;2023-02-05T14:42:02;4.70;99.90
65036;DHT22;51603;49.300;8.880;2023-02-05T14:44:35;4.70;99.90
65036;DHT22;51603;49.300;8.880;2023-02-05T14:47:25;4.70;99.90
65036;DHT22;51603;49.300;8.880;2023-02-05T14:49:59;4.70;99.90
65036;DHT22;51603;49.300;8.880;2023-02-05T14:54:56;4.60;99.90
65036;DHT22;51603;49.300;8.880;2023-02-05T14:57:54;4.60;99.90
65036;DHT22;51603;49.300;8.880;2023-02-05T15:00:25;4.60;99.90
65036;DHT22;51603;49.300;8.880;2023-02-05T15:03:05;4.60;99.90
65036;DHT22;51603;49.300;8.880;2023-02-05T15:05:55;4.60;99.90
65036;DHT22;51603;49.300;8.880;2023-02-05T15:08:38;4.60;99.90
65036;DHT22;51603;49.300;8.880;2023-02-05T15:16:44;4.60;99.90
65036;DHT22;51603;49.300;8.880;2023-02-05T15:19:11;4.60;99.90
65036;DHT22;51603;49.300;8.880;2023-02-05T15:21:38;4.50;99.90
65036;DHT22;51603;49.300;8.880;2023-02-05T15:24:22;4.50;99.90
65036;DHT22;51603;49.300;8.880;2023-02-05T15:29:41;4.50;99.90
65036;DHT22;51603;49.300;8.880;2023-02-05T15:32:23;4.50;99.90
65036;DHT22;51603;49.300;8.880;2023-02-05T15:35:06;4.50;99.90
65036;DHT22;51603;49.300;8.880;2023-02-05T15:37:37;4.50;99.90
65036;DHT22;51603;49.300;8.880;2023-02-05T15:40:20;4.40;99.90
65036;DHT22;51603;49.300;8.880;2023-02-05T15:42:51;4.40;99.90
65036;DHT22;51603;49.300;8.880;2023-02-05T15:45:20;4.40;99.90
65036;DHT22;51603;49.300;8.880;2023-02-05T15:50:28;4.40;99.90
65036;DHT22;51603;49.300;8.880;2023-02-05T15:52:56;4.30;99.90
65036;DHT22;51603;49.300;8.880;2023-02-05T15:55:22;4.40;99.90
65036;DHT22;51603;49.300;8.880;2023-02-05T15:57:51;4.30;99.90
65036;DHT22;51603;49.300;8.880;2023-02-05T16:00:23;4.30;99.90
65036;DHT22;51603;49.300;8.880;2023-02-05T16:03:00;4.30;99.90
65036;DHT22;51603;49.300;8.880;2023-02-05T16:05:28;4.30;99.90
65036;DHT22;51603;49.300;8.880;2023-02-05T16:07:54;4.30;99.90
65036;DHT22;51603;49.300;8.880;2023-02-05T16:10:29;4.30;99.90
65036;DHT22;51603;49.300;8.880;2023-02-05T16:13:03;4.30;99.90
65036;DHT22;51603;49.300;8.880;2023-02-05T16:15:38;4.30;99.90
65036;DHT22;51603;49.300;8.880;2023-02-05T16:18:11;4.30;99.90
65036;DHT22;51603;49.300;8.880;2023-02-05T16:20:42;4.30;99.90
65036;DHT22;51603;49.300;8.880;2023-02-05T16:25:51;4.30;99.90
65036;DHT22;51603;49.300;8.880;2023-02-05T16:28:21;4.30;99.90
65036;DHT22;51603;49.300;8.880;2023-02-05T16:30:52;4.30;99.90
65036;DHT22;51603;49.300;8.880;2023-02-05T16:35:54;4.30;99.90
65036;DHT22;51603;49.300;8.880;2023-02-05T16:38:22;4.30;99.90
65036;DHT22;51603;49.300;8.880;2023-02-05T16:40:59;4.30;99.90
65036;DHT22;51603;49.300;8.880;2023-02-05T16:43:37;4.30;99.90
65036;DHT22;51603;49.300;8.880;2023-02-05T16:51:50;4.30;99.90
65036;DHT22;51603;49.300;8.880;2023-02-05T16:57:02;4.30;99.90
65036;DHT22;51603;49.300;8.880;2023-02-05T16:59:39;4.20;99.90
65036;DHT22;51603;49.300;8.880;2023-02-05T17:02:33;4.20;99.90
65036;DHT22;51603;49.300;8.880;2023-02-05T17:05:02;4.20;99.90
65036;DHT22;51603;49.300;8.880;2023-02-05T17:07:29;4.20;99.90
65036;DHT22;51603;49.300;8.880;2023-02-05T17:10:26;4.20;99.90
65036;DHT22;51603;49.300;8.880;2023-02-05T17:13:02;4.20;99.90
65036;DHT22;51603;49.300;8.880;2023-02-05T17:15:36;4.20;99.90
65036;DHT22;51603;49.300;8.880;2023-02-05T17:18:26;4.20;99.90
65036;DHT22;51603;49.300;8.880;2023-02-05T17:21:19;4.20;99.90
65036;DHT22;51603;49.300;8.880;2023-02-05T17:23:50;4.10;99.90
65036;DHT22;51603;49.300;8.880;2023-02-05T17:26:16;4.10;99.90
65036;DHT22;51603;49.300;8.880;2023-02-05T17:28:43;4.10;99.90
65036;DHT22;51603;49.300;8.880;2023-02-05T17:31:11;4.10;99.90
65036;DHT22;51603;49.300;8.880;2023-02-05T17:33:38;4.10;99.90
65036;DHT22;51603;49.300;8.880;2023-02-05T17:36:04;4.00;99.90
65036;DHT22;51603;49.300;8.880;2023-02-05T17:38:29;4.00;99.90
65036;DHT22;51603;49.300;8.880;2023-02-05T17:40:55;4.00;99.90
65036;DHT22;51603;49.300;8.880;2023-02-05T17:43:39;4.00;99.90
65036;DHT22;51603;49.300;8.880;2023-02-05T17:46:14;4.00;99.90
65036;DHT22;51603;49.300;8.880;2023-02-05T17:48:40;4.00;99.90
65036;DHT22;51603;49.300;8.880;2023-02-05T17:51:19;4.00;99.90
65036;DHT22;51603;49.300;8.880;2023-02-05T17:53:45;4.00;99.90
65036;DHT22;51603;49.300;8.880;2023-02-05T17:56:11;4.00;99.90
65036;DHT22;51603;49.300;8.880;2023-02-05T17:58:38;3.90;99.90
65036;DHT22;51603;49.300;8.880;2023-02-05T18:01:04;3.90;99.90
65036;DHT22;51603;49.300;8.880;2023-02-05T18:03:30;3.90;99.90
65036;DHT22;51603;49.300;8.880;2023-02-05T18:05:57;3.90;99.90
65036;DHT22;51603;49.300;8.880;2023-02-05T18:08:22;3.90;99.90
65036;DHT22;51603;49.300;8.880;2023-02-05T18:10:49;3.90;99.90
65036;DHT22;51603;49.300;8.880;2023-02-05T18:13:15;3.90;99.90
65036;DHT22;51603;49.300;8.880;2023-02-05T18:15:42;3.80;99.90
65036;DHT22;51603;49.300;8.880;2023-02-05T18:18:07;3.80;99.90
65036;DHT22;51603;49.300;8.880;2023-02-05T18:20:33;3.80;99.90
65036;DHT22;51603;49.300;8.880;2023-02-05T18:22:59;3.80;99.90
65036;DHT22;51603;49.300;8.880;2023-02-05T18:25:24;3.80;99.90
65036;DHT22;51603;49.300;8.880;2023-02-05T18:27:51;3.70;99.90
65036;DHT22;51603;49.300;8.880;2023-02-05T18:30:16;3.70;99.90
65036;DHT22;51603;49.300;8.880;2023-02-05T18:32:42;3.70;99.90